Time;durP1;ratioP1;P1;durP2;ratioP2;P2;SDS_P1;SDS_P2;PMS_P1;PMS_P2;Temp;Humidity;BMP_temperature;BMP_pressure;BME280_temperature;BME280_humidity;BME280_pressure;Samples;Min_cycle;Max_cycle;Signal;HPM_P1;HPM_P2
2021/12/18 00:01:06;;;;;;;7.70;4.13;;;;;;;-1.26;100.00;100603.75;5049269;28;20284;-54
2021/12/18 00:03:33;;;;;;;6.90;3.53;;;;;;;-1.34;100.00;100603.91;5050537;28;20206;-57
2021/12/18 00:06:01;;;;;;;6.00;3.60;;;;;;;-1.41;100.00;100606.56;5051181;28;20298;-56
2021/12/18 00:08:28;;;;;;;6.50;3.87;;;;;;;-1.42;100.00;100599.75;5049579;28;20279;-57
2021/12/18 00:10:56;;;;;;;6.67;3.93;;;;;;;-1.42;100.00;100599.75;5049375;28;20304;-57
2021/12/18 00:13:23;;;;;;;6.63;3.93;;;;;;;-1.35;100.00;100594.53;5051765;28;20237;-56
2021/12/18 00:15:51;;;;;;;8.23;4.27;;;;;;;-1.39;100.00;100592.88;5054345;28;20210;-56
2021/12/18 00:18:18;;;;;;;7.17;4.03;;;;;;;-1.41;100.00;100581.81;5054673;28;20240;-56
2021/12/18 00:20:45;;;;;;;8.97;3.90;;;;;;;-1.41;100.00;100584.38;5053874;28;20236;-56
2021/12/18 00:23:12;;;;;;;8.00;4.83;;;;;;;-1.45;100.00;100582.75;5053621;28;20192;-55
2021/12/18 00:25:39;;;;;;;7.00;4.27;;;;;;;-1.44;100.00;100586.13;5054240;28;20244;-57
2021/12/18 00:28:08;;;;;;;6.57;4.23;;;;;;;-1.43;100.00;100593.81;5054616;28;20276;-56
2021/12/18 00:30:35;;;;;;;7.53;4.20;;;;;;;-1.52;100.00;100599.06;5052270;28;20193;-57
2021/12/18 00:33:02;;;;;;;8.03;4.70;;;;;;;-1.48;100.00;100601.56;5054530;28;20215;-56
2021/12/18 00:35:29;;;;;;;5.90;4.00;;;;;;;-1.52;100.00;100601.63;5054463;28;20668;-54
2021/12/18 00:37:59;;;;;;;7.43;4.60;;;;;;;-1.53;100.00;100593.09;5053732;28;20268;-57
2021/12/18 00:40:32;;;;;;;6.97;4.37;;;;;;;-1.53;100.00;100605.06;5053717;28;20221;-57
2021/12/18 00:43:01;;;;;;;7.77;4.70;;;;;;;-1.55;100.00;100599.97;5053716;28;20182;-56
2021/12/18 00:45:30;;;;;;;7.13;4.43;;;;;;;-1.47;100.00;100594.72;5053742;28;20179;-55
2021/12/18 00:48:00;;;;;;;8.17;4.87;;;;;;;-1.56;100.00;100594.88;5054194;28;20193;-55
2021/12/18 00:50:30;;;;;;;6.30;4.23;;;;;;;-1.59;100.00;100594.94;5052935;28;20187;-57
2021/12/18 00:52:57;;;;;;;10.40;4.67;;;;;;;-1.50;100.00;100594.78;5053519;28;20548;-57
2021/12/18 00:55:25;;;;;;;8.10;5.03;;;;;;;-1.54;100.00;100593.97;5053602;28;20268;-55
2021/12/18 00:57:52;;;;;;;6.83;4.37;;;;;;;-1.57;100.00;100600.88;5053632;28;20281;-55
2021/12/18 01:00:23;;;;;;;7.57;4.80;;;;;;;-1.65;100.00;100596.72;5052730;28;20672;-55
2021/12/18 01:02:55;;;;;;;8.30;4.83;;;;;;;-1.68;100.00;100596.75;5053030;28;20274;-55
2021/12/18 01:05:22;;;;;;;7.67;4.40;;;;;;;-1.53;100.00;100595.66;5053513;28;20194;-54
2021/12/18 01:07:49;;;;;;;8.73;5.10;;;;;;;-1.56;100.00;100602.56;5052907;28;20281;-52
2021/12/18 01:10:36;;;;;;;11.77;5.13;;;;;;;-1.66;100.00;100595.03;5050159;28;20202;-55
2021/12/18 01:13:07;;;;;;;9.73;5.33;;;;;;;-1.70;100.00;100597.66;5033207;28;20199;-55
2021/12/18 01:15:37;;;;;;;8.87;5.60;;;;;;;-1.67;100.00;100595.06;5033438;28;20260;-55
2021/12/18 01:23:34;;;;;;;9.90;5.00;;;;;;;-1.81;100.00;100595.25;5033130;28;20302;-55
2021/12/18 01:26:03;;;;;;;7.70;5.10;;;;;;;-1.85;100.00;100602.16;5033142;28;20241;-55
2021/12/18 01:28:30;;;;;;;12.07;5.93;;;;;;;-1.77;100.00;100598.63;5032649;28;20187;-51
2021/12/18 01:30:57;;;;;;;8.47;5.47;;;;;;;-1.82;100.00;100598.69;5032560;28;20300;-55
2021/12/18 01:33:25;;;;;;;11.23;5.50;;;;;;;-1.75;100.00;100596.91;5033071;28;20201;-55
2021/12/18 01:35:53;;;;;;;10.23;5.40;;;;;;;-1.74;100.00;100601.16;5032837;28;20249;-55
2021/12/18 01:38:22;;;;;;;9.60;6.00;;;;;;;-1.84;100.00;100593.59;5032518;28;20277;-54
2021/12/18 01:40:50;;;;;;;12.47;5.70;;;;;;;-1.84;100.00;100595.31;5031162;28;20795;-55
2021/12/18 01:51:58;;;;;;;11.97;6.73;;;;;;;-1.65;100.00;100593.31;5031784;28;20213;-54
2021/12/18 01:54:25;;;;;;;13.03;7.50;;;;;;;-1.56;100.00;100597.44;5046123;28;20560;-54
2021/12/18 01:56:52;;;;;;;11.67;6.53;;;;;;;-1.51;100.00;100588.78;5052935;28;20203;-53
2021/12/18 01:59:33;;;;;;;10.23;6.60;;;;;;;-1.63;100.00;100594.16;5050730;28;20673;-52
2021/12/18 02:02:00;;;;;;;11.03;6.27;;;;;;;-1.60;100.00;100590.66;5052777;28;20257;-54
2021/12/18 02:04:28;;;;;;;12.70;6.70;;;;;;;-1.71;100.00;100584.00;5052394;28;20193;-54
2021/12/18 02:06:55;;;;;;;11.47;6.93;;;;;;;-1.71;100.00;100585.72;5050900;28;20204;-54
2021/12/18 02:09:28;;;;;;;11.17;6.47;;;;;;;-1.69;100.00;100576.31;5052490;28;20615;-54
2021/12/18 02:11:55;;;;;;;13.20;6.77;;;;;;;-1.48;100.00;100582.78;5050619;28;20222;-54
2021/12/18 02:19:29;;;;;;;11.33;6.47;;;;;;;-1.56;100.00;100576.94;5051639;28;20217;-55
2021/12/18 02:20:21;;;;;;;11.83;6.40;;;;;;;-1.62;100.00;100577.91;5050783;28;20194;-54
2021/12/18 02:22:47;;;;;;;11.07;6.10;;;;;;;-1.66;100.00;100583.94;5052184;28;20205;-55
2021/12/18 02:25:14;;;;;;;10.30;6.10;;;;;;;-1.72;100.00;100577.19;5051935;28;20189;-54
2021/12/18 02:27:41;;;;;;;15.60;6.33;;;;;;;-1.67;100.00;100574.56;5051426;28;20186;-55
2021/12/18 02:30:11;;;;;;;9.97;6.30;;;;;;;-1.77;100.00;100576.41;5051339;28;20199;-55
2021/12/18 02:32:37;;;;;;;13.30;7.17;;;;;;;-1.75;100.00;100579.81;5051896;28;20225;-55
2021/12/18 02:35:06;;;;;;;11.97;6.03;;;;;;;-1.74;100.00;100575.53;5051283;28;20240;-54
2021/12/18 02:37:39;;;;;;;10.10;6.27;;;;;;;-1.80;100.00;100573.91;5050394;28;20726;-54
2021/12/18 02:42:53;;;;;;;12.93;6.13;;;;;;;-1.82;100.00;100567.97;5051243;28;20190;-55
2021/12/18 02:45:21;;;;;;;11.57;5.87;;;;;;;-1.80;100.00;100564.53;5051682;28;20198;-55
2021/12/18 02:47:48;;;;;;;12.40;6.00;;;;;;;-1.83;100.00;100573.94;5051647;28;20495;-55
2021/12/18 02:50:16;;;;;;;12.83;6.40;;;;;;;-1.85;100.00;100568.88;5050745;28;20191;-52
2021/12/18 02:52:43;;;;;;;9.77;5.67;;;;;;;-1.78;100.00;100577.28;5051251;28;20338;-52
2021/12/18 02:55:10;;;;;;;11.93;6.67;;;;;;;-1.84;100.00;100583.34;5051474;28;20195;-55
2021/12/18 02:57:37;;;;;;;12.00;6.00;;;;;;;-1.77;100.00;100578.97;5050917;28;20209;-54
2021/12/18 03:00:05;;;;;;;12.57;6.20;;;;;;;-1.79;100.00;100579.03;5050950;28;20193;-52
2021/12/18 03:02:37;;;;;;;12.07;5.87;;;;;;;-1.84;100.00;100574.81;5051431;28;20238;-54
2021/12/18 03:05:07;;;;;;;14.53;6.70;;;;;;;-1.81;100.00;100573.06;5050583;28;20190;-54
2021/12/18 03:07:35;;;;;;;11.87;6.53;;;;;;;-1.86;100.00;100567.19;5051320;28;20414;-53
2021/12/18 03:24:27;;;;;;;15.20;6.47;;;;;;;-1.84;100.00;100559.47;5051469;28;20201;-57
2021/12/18 03:26:54;;;;;;;12.80;6.83;;;;;;;-1.85;100.00;100560.31;5051075;28;20190;-57
2021/12/18 03:29:21;;;;;;;14.67;5.70;;;;;;;-1.85;100.00;100560.31;5049522;28;20244;-55
2021/12/18 03:31:48;;;;;;;12.27;6.57;;;;;;;-1.81;100.00;100561.97;5050291;28;20226;-56
2021/12/18 03:34:15;;;;;;;12.40;6.80;;;;;;;-1.84;100.00;100549.22;5050624;28;20272;-57
2021/12/18 03:36:42;;;;;;;11.97;6.03;;;;;;;-1.84;100.00;100550.09;5051394;28;20297;-57
2021/12/18 03:39:10;;;;;;;12.07;6.47;;;;;;;-1.89;100.00;100556.13;5050861;28;20218;-56
2021/12/18 03:41:37;;;;;;;12.97;6.90;;;;;;;-1.92;100.00;100551.91;5049896;28;20217;-57
2021/12/18 03:44:04;;;;;;;11.50;6.47;;;;;;;-1.91;100.00;100547.63;5050841;28;20187;-57
2021/12/18 03:46:31;;;;;;;11.27;6.87;;;;;;;-1.86;100.00;100553.53;5050728;28;20273;-57
2021/12/18 03:48:58;;;;;;;13.23;7.13;;;;;;;-1.82;100.00;100550.91;5054637;28;20184;-56
2021/12/18 03:51:25;;;;;;;12.40;6.93;;;;;;;-1.87;100.00;100552.69;5054331;28;20209;-57
2021/12/18 03:53:52;;;;;;;11.43;6.23;;;;;;;-1.91;100.00;100555.31;5054890;28;20190;-56
2021/12/18 03:56:20;;;;;;;10.57;6.23;;;;;;;-2.00;100.00;100557.13;5051894;28;20201;-54
2021/12/18 03:58:47;;;;;;;12.50;7.00;;;;;;;-2.00;100.00;100552.00;5055300;28;20192;-57
2021/12/18 04:01:14;;;;;;;11.57;7.07;;;;;;;-1.97;100.00;100551.97;5054169;28;20208;-55
2021/12/18 04:03:44;;;;;;;14.07;6.53;;;;;;;-1.94;100.00;100549.38;5054857;28;20181;-57
2021/12/18 04:06:10;;;;;;;12.03;6.70;;;;;;;-1.96;100.00;100542.59;5054412;28;20189;-55
2021/12/18 04:08:37;;;;;;;13.57;6.77;;;;;;;-1.96;100.00;100550.28;5054324;28;20198;-57
2021/12/18 04:11:04;;;;;;;12.33;6.33;;;;;;;-1.93;100.00;100551.06;5053670;28;20243;-55
2021/12/18 04:13:32;;;;;;;11.73;6.50;;;;;;;-1.93;100.00;100550.22;5053015;28;20191;-57
2021/12/18 04:15:59;;;;;;;10.90;6.80;;;;;;;-2.00;100.00;100549.44;5054447;28;20192;-57
2021/12/18 04:18:26;;;;;;;12.13;7.23;;;;;;;-1.98;100.00;100557.13;5054302;28;20204;-57
2021/12/18 04:20:53;;;;;;;12.10;7.33;;;;;;;-2.04;100.00;100555.47;5053529;28;20715;-55
2021/12/18 04:23:19;;;;;;;12.50;6.43;;;;;;;-1.96;100.00;100563.06;5054141;28;20188;-55
2021/12/18 04:25:47;;;;;;;11.33;6.60;;;;;;;-2.02;100.00;100558.03;5054335;28;20198;-56
2021/12/18 04:28:13;;;;;;;14.53;7.40;;;;;;;-1.99;100.00;100558.81;5054047;28;20216;-57
2021/12/18 04:30:41;;;;;;;14.23;7.47;;;;;;;-2.05;100.00;100552.97;5053726;28;20607;-57
2021/12/18 04:33:08;;;;;;;15.80;7.77;;;;;;;-2.07;100.00;100565.75;5053258;28;20194;-57
2021/12/18 04:35:35;;;;;;;15.77;8.00;;;;;;;-2.11;100.00;100564.13;5052972;28;20248;-55
2021/12/18 04:38:01;;;;;;;15.33;7.90;;;;;;;-2.11;100.00;100556.44;5053937;28;20216;-57
2021/12/18 04:40:29;;;;;;;16.53;8.40;;;;;;;-2.07;100.00;100558.09;5053173;28;20189;-57
2021/12/18 04:42:56;;;;;;;14.00;7.63;;;;;;;-2.08;100.00;100556.41;5054140;28;20192;-56
2021/12/18 04:45:22;;;;;;;13.30;8.03;;;;;;;-2.13;100.00;100563.31;5053752;28;20229;-57
2021/12/18 04:47:50;;;;;;;12.63;7.50;;;;;;;-2.10;100.00;100559.00;5053273;28;20555;-55
2021/12/18 04:50:17;;;;;;;14.60;8.27;;;;;;;-2.04;100.00;100565.72;5053342;28;20222;-57
2021/12/18 04:52:45;;;;;;;13.70;8.07;;;;;;;-2.02;100.00;100561.44;5053925;28;20209;-57
2021/12/18 04:55:12;;;;;;;14.07;7.57;;;;;;;-2.04;100.00;100557.22;5052646;28;20179;-57
2021/12/18 04:57:40;;;;;;;13.47;8.20;;;;;;;-2.11;100.00;100557.31;5053390;28;20694;-57
2021/12/18 05:00:09;;;;;;;16.63;8.37;;;;;;;-2.10;100.00;100559.00;5052672;28;20202;-57
2021/12/18 05:02:39;;;;;;;14.47;7.60;;;;;;;-2.07;100.00;100555.53;5053310;28;20214;-56
2021/12/18 05:05:10;;;;;;;12.80;6.80;;;;;;;-2.09;100.00;100552.16;5053637;28;20244;-56
2021/12/18 05:07:37;;;;;;;12.53;6.93;;;;;;;-2.09;100.00;100562.38;5053534;28;20187;-57
2021/12/18 05:10:05;;;;;;;11.43;7.30;;;;;;;-2.14;100.00;100553.97;5052060;28;20184;-57
2021/12/18 05:12:32;;;;;;;14.07;7.80;;;;;;;-2.11;100.00;100562.41;5051368;28;20324;-55
2021/12/18 05:14:59;;;;;;;14.87;7.33;;;;;;;-2.13;100.00;100564.16;5051758;28;20217;-57
2021/12/18 05:17:25;;;;;;;14.23;7.80;;;;;;;-2.13;100.00;100565.88;5052867;28;20305;-56
2021/12/18 05:19:52;;;;;;;14.63;8.27;;;;;;;-2.14;100.00;100567.59;5052238;28;20228;-57
2021/12/18 05:22:20;;;;;;;15.23;7.47;;;;;;;-2.08;100.00;100567.50;5052985;28;20232;-56
2021/12/18 05:24:47;;;;;;;11.83;7.10;;;;;;;-2.11;100.00;100567.53;5052142;28;20604;-57
2021/12/18 05:27:14;;;;;;;12.67;7.07;;;;;;;-2.18;100.00;100567.66;5053192;28;20186;-57
2021/12/18 05:29:41;;;;;;;10.67;6.40;;;;;;;-2.14;100.00;100561.63;5052347;28;20196;-55
2021/12/18 05:32:08;;;;;;;10.57;5.80;;;;;;;-2.18;100.00;100557.44;5053030;28;20732;-56
2021/12/18 05:34:37;;;;;;;12.40;6.10;;;;;;;-2.19;100.00;100558.28;5052733;28;20181;-55
2021/12/18 05:37:18;;;;;;;10.23;6.03;;;;;;;-2.16;100.00;100550.56;5051615;28;20225;-57
2021/12/18 05:39:48;;;;;;;10.23;6.00;;;;;;;-2.13;100.00;100560.75;5049647;28;20256;-57
2021/12/18 05:42:15;;;;;;;12.80;6.00;;;;;;;-2.09;100.00;100549.59;5052112;28;20197;-57
2021/12/18 05:44:43;;;;;;;13.50;6.73;;;;;;;-2.12;100.00;100554.78;5052862;28;20193;-56
2021/12/18 05:47:10;;;;;;;12.27;6.80;;;;;;;-2.12;100.00;100553.06;5052191;28;20183;-57
2021/12/18 05:49:37;;;;;;;9.27;5.73;;;;;;;-2.13;100.00;100555.66;5052297;28;20190;-56
2021/12/18 05:52:05;;;;;;;10.70;5.83;;;;;;;-2.19;100.00;100553.19;5052709;28;20208;-55
2021/12/18 05:54:34;;;;;;;14.57;6.70;;;;;;;-2.17;100.00;100556.56;5052141;28;20191;-57
2021/12/18 05:57:04;;;;;;;12.33;6.10;;;;;;;-2.17;100.00;100565.06;5052612;28;20235;-57
2021/12/18 05:59:31;;;;;;;12.30;5.63;;;;;;;-2.17;100.00;100569.34;5052280;28;20667;-57
2021/12/18 06:01:58;;;;;;;11.90;6.13;;;;;;;-2.12;100.00;100570.13;5049693;28;20734;-57
2021/12/18 06:04:24;;;;;;;9.63;5.90;;;;;;;-2.17;100.00;100566.78;5051773;28;20542;-57
2021/12/18 06:06:51;;;;;;;11.97;6.30;;;;;;;-2.22;100.00;100582.19;5052458;28;20713;-57
2021/12/18 06:09:18;;;;;;;12.13;6.20;;;;;;;-2.22;100.00;100577.06;5050795;28;20198;-55
2021/12/18 06:11:45;;;;;;;12.07;6.18;;;;;;;-2.16;100.00;100574.44;5050728;28;20925;-57
2021/12/18 06:14:13;;;;;;;12.70;6.83;;;;;;;-2.16;100.00;100582.09;5050990;28;20191;-55
2021/12/18 06:16:40;;;;;;;11.77;6.67;;;;;;;-2.21;100.00;100572.81;5048679;28;20607;-55
2021/12/18 06:19:06;;;;;;;12.17;6.60;;;;;;;-2.15;100.00;100577.84;5051301;28;20284;-57
2021/12/18 06:21:33;;;;;;;15.40;8.57;;;;;;;-2.19;100.00;100579.59;5050737;28;20206;-57
2021/12/18 06:24:00;;;;;;;27.03;10.83;;;;;;;-2.16;100.00;100577.00;5050482;28;20599;-56
2021/12/18 06:26:27;;;;;;;10.50;5.97;;;;;;;-2.16;100.00;100579.56;5051434;28;20191;-56
2021/12/18 06:28:55;;;;;;;14.97;8.23;;;;;;;-2.25;100.00;100577.97;5051801;28;20190;-57
2021/12/18 06:31:24;;;;;;;12.20;6.67;;;;;;;-2.17;100.00;100582.97;5050242;28;20831;-53
2021/12/18 06:33:51;;;;;;;9.60;5.60;;;;;;;-2.20;100.00;100575.34;5050935;28;20198;-56
2021/12/18 06:36:17;;;;;;;10.80;5.93;;;;;;;-2.25;100.00;100579.69;5051422;28;20629;-57
2021/12/18 06:38:44;;;;;;;9.33;5.50;;;;;;;-2.23;100.00;100583.91;5051525;28;20713;-55
2021/12/18 06:41:12;;;;;;;12.43;6.43;;;;;;;-2.26;100.00;100575.44;5051296;28;20209;-56
2021/12/18 06:43:38;;;;;;;11.93;6.70;;;;;;;-2.22;100.00;100579.63;5050869;28;20194;-54
2021/12/18 06:46:06;;;;;;;12.50;6.20;;;;;;;-2.25;100.00;100579.69;5051957;28;20187;-57
2021/12/18 06:48:35;;;;;;;12.47;6.50;;;;;;;-2.22;100.00;100584.75;5050944;28;20182;-56
2021/12/18 06:51:02;;;;;;;13.47;7.90;;;;;;;-2.26;100.00;100575.44;5050918;28;20690;-54
2021/12/18 06:53:28;;;;;;;11.27;6.67;;;;;;;-2.29;100.00;100586.56;5052043;28;20193;-51
2021/12/18 06:55:55;;;;;;;10.30;6.27;;;;;;;-2.20;100.00;100589.88;5051301;28;20190;-52
2021/12/18 06:58:22;;;;;;;11.67;6.27;;;;;;;-2.19;100.00;100583.88;5051392;28;20210;-51
2021/12/18 07:00:52;;;;;;;12.73;7.10;;;;;;;-2.23;100.00;100586.47;5049607;28;20232;-54
2021/12/18 07:03:19;;;;;;;13.87;6.37;;;;;;;-2.28;100.00;100588.25;5051052;28;20194;-54
2021/12/18 07:05:48;;;;;;;12.60;6.87;;;;;;;-2.23;100.00;100583.91;5050811;28;20198;-54
2021/12/18 07:08:14;;;;;;;14.10;8.40;;;;;;;-2.19;100.00;100586.44;5051107;28;20522;-52
2021/12/18 07:10:41;;;;;;;21.30;11.23;;;;;;;-2.20;100.00;100587.31;5048415;28;20590;-55
2021/12/18 07:13:08;;;;;;;24.90;15.63;;;;;;;-2.22;100.00;100589.88;5051205;28;20501;-54
2021/12/18 07:15:35;;;;;;;17.07;9.97;;;;;;;-2.26;100.00;100589.09;5050218;28;20218;-53
2021/12/18 07:18:01;;;;;;;18.03;9.50;;;;;;;-2.23;100.00;100598.41;5049923;28;20698;-54
2021/12/18 07:20:28;;;;;;;13.97;8.40;;;;;;;-2.18;100.00;100594.06;5050375;28;20617;-55
2021/12/18 07:22:56;;;;;;;15.80;8.33;;;;;;;-2.17;100.00;100593.22;5050992;28;20679;-54
2021/12/18 07:25:23;;;;;;;15.43;7.17;;;;;;;-2.11;100.00;100599.94;5050690;28;20190;-54
2021/12/18 07:27:49;;;;;;;11.53;6.60;;;;;;;-2.19;100.00;100600.06;5050929;28;20185;-55
2021/12/18 07:30:17;;;;;;;11.37;7.03;;;;;;;-2.17;100.00;100597.50;5050060;28;20202;-55
2021/12/18 07:32:45;;;;;;;12.87;7.07;;;;;;;-2.12;100.00;100605.97;5050643;28;20362;-54
2021/12/18 07:35:12;;;;;;;12.70;6.90;;;;;;;-2.15;100.00;100606.84;5051059;28;20286;-55
2021/12/18 07:37:39;;;;;;;12.93;6.77;;;;;;;-2.11;100.00;100615.28;5050885;28;20704;-52
2021/12/18 07:40:09;;;;;;;15.83;9.00;;;;;;;-2.11;100.00;100608.47;5049516;28;20189;-55
2021/12/18 07:42:36;;;;;;;28.13;14.40;;;;;;;-2.05;100.00;100612.66;5050861;28;20202;-54
2021/12/18 07:45:05;;;;;;;18.40;9.33;;;;;;;-2.01;100.00;100616.88;5050753;28;20508;-55
2021/12/18 07:47:32;;;;;;;15.70;9.00;;;;;;;-2.03;100.00;100618.59;5049631;28;20550;-55
2021/12/18 07:49:59;;;;;;;17.10;9.60;;;;;;;-2.03;100.00;100616.03;5050116;28;20182;-55
2021/12/18 07:52:25;;;;;;;16.43;8.57;;;;;;;-2.04;100.00;100616.06;5050588;28;20216;-52
2021/12/18 07:54:52;;;;;;;15.33;8.73;;;;;;;-1.95;100.00;100609.09;5050394;28;20203;-54
2021/12/18 07:57:20;;;;;;;13.83;7.47;;;;;;;-1.93;100.00;100607.38;5050717;28;20247;-53
2021/12/18 07:59:47;;;;;;;15.83;7.30;;;;;;;-1.90;100.00;100606.50;5050061;28;20184;-52
2021/12/18 08:02:14;;;;;;;15.83;7.83;;;;;;;-1.88;100.00;100609.88;5050274;28;20206;-55
2021/12/18 08:04:40;;;;;;;14.53;8.87;;;;;;;-1.87;100.00;100611.56;5050422;28;20182;-53
2021/12/18 08:07:07;;;;;;;18.17;10.13;;;;;;;-1.84;100.00;100608.09;5051147;28;20199;-56
2021/12/18 08:09:34;;;;;;;18.93;10.20;;;;;;;-1.80;100.00;100613.16;5049684;28;20193;-51
2021/12/18 08:12:01;;;;;;;24.23;13.30;;;;;;;-1.74;100.00;100609.66;5050385;28;20209;-55
2021/12/18 08:14:32;;;;;;;18.20;9.70;;;;;;;-1.73;100.00;100608.78;5068555;22;20188;-59
2021/12/18 08:16:58;;;;;;;16.53;8.03;;;;;;;-1.71;100.00;100612.16;4969509;28;20456;-60
2021/12/18 08:19:25;;;;;;;17.87;10.17;;;;;;;-1.66;100.00;100602.69;4970622;28;20212;-60
2021/12/18 08:22:14;;;;;;;12.10;7.77;;;;;;;-1.64;100.00;100607.81;4971528;28;20703;-59
2021/12/18 08:24:41;;;;;;;17.27;9.97;;;;;;;-1.63;100.00;100612.91;4972456;28;20247;-60
2021/12/18 08:27:08;;;;;;;17.33;9.47;;;;;;;-1.60;100.00;100608.59;4972456;28;20193;-59
2021/12/18 08:29:36;;;;;;;17.30;9.97;;;;;;;-1.57;100.00;100611.13;4971930;28;20192;-59
2021/12/18 08:32:04;;;;;;;24.33;13.33;;;;;;;-1.55;100.00;100615.31;4972328;28;20197;-59
2021/12/18 08:34:31;;;;;;;20.43;11.47;;;;;;;-1.48;100.00;100610.97;4972091;28;20205;-58
2021/12/18 08:36:58;;;;;;;19.07;9.50;;;;;;;-1.43;100.00;100611.75;4968053;28;20193;-59
2021/12/18 08:39:25;;;;;;;13.30;8.50;;;;;;;-1.43;100.00;100609.19;4969125;28;20885;-59
2021/12/18 08:41:52;;;;;;;15.33;8.97;;;;;;;-1.40;100.00;100606.56;4963868;28;20249;-58
2021/12/18 08:44:19;;;;;;;19.23;10.50;;;;;;;-1.36;100.00;100604.78;4964694;28;20192;-59
2021/12/18 08:46:47;;;;;;;19.97;10.97;;;;;;;-1.31;100.00;100594.47;4965996;28;20193;-59
2021/12/18 08:49:17;;;;;;;20.13;10.83;;;;;;;-1.27;100.00;100602.06;4966255;28;20183;-59
2021/12/18 08:51:45;;;;;;;18.63;9.97;;;;;;;-1.24;100.00;100603.75;4963321;28;20213;-59
2021/12/18 08:54:11;;;;;;;18.30;10.20;;;;;;;-1.22;100.00;100597.72;4965826;28;20188;-59
2021/12/18 08:56:38;;;;;;;15.50;8.63;;;;;;;-1.14;100.00;100604.41;4965641;28;20212;-59
2021/12/18 08:59:06;;;;;;;13.73;8.67;;;;;;;-1.11;100.00;100599.22;4962758;28;20218;-59
2021/12/18 09:01:32;;;;;;;15.20;9.00;;;;;;;-0.94;100.00;100604.91;4964347;28;20456;-59
2021/12/18 09:04:01;;;;;;;15.33;8.33;;;;;;;-0.89;100.00;100602.25;4965129;28;20201;-59
2021/12/18 09:06:28;;;;;;;16.10;7.63;;;;;;;-0.82;100.00;100593.56;4966066;28;20209;-59
2021/12/18 09:08:55;;;;;;;13.73;6.73;;;;;;;-0.69;100.00;100607.00;4964459;28;20715;-59
2021/12/18 09:11:22;;;;;;;17.30;9.60;;;;;;;-0.64;100.00;100601.78;4962879;28;20716;-59
2021/12/18 09:13:49;;;;;;;19.33;11.67;;;;;;;-0.54;100.00;100612.72;4965376;28;20182;-57
2021/12/18 09:16:16;;;;;;;26.80;15.53;;;;;;;-0.49;100.00;100614.28;4964231;28;20304;-59
2021/12/18 09:18:43;;;;;;;22.27;10.20;;;;;;;-0.45;100.00;100615.91;4963282;28;20581;-57
2021/12/18 09:21:11;;;;;;;15.53;8.90;;;;;;;-0.38;100.00;100616.63;4964279;28;20665;-58
2021/12/18 09:23:38;;;;;;;15.57;8.97;;;;;;;-0.33;100.00;100611.41;4964362;28;20192;-58
2021/12/18 09:26:04;;;;;;;14.37;8.33;;;;;;;-0.29;100.00;100615.59;4963006;28;20248;-59
2021/12/18 09:28:31;;;;;;;21.33;11.33;;;;;;;-0.24;100.00;100613.78;4964668;28;20275;-57
2021/12/18 09:30:58;;;;;;;25.93;14.17;;;;;;;-0.17;100.00;100620.47;4963720;28;20189;-58
2021/12/18 09:33:25;;;;;;;24.70;12.67;;;;;;;-0.10;100.00;100612.66;4962756;28;20194;-59
2021/12/18 09:35:52;;;;;;;19.40;10.97;;;;;;;-0.02;100.00;100610.75;4964356;28;20649;-57
2021/12/18 09:38:20;;;;;;;19.73;10.63;;;;;;;0.04;100.00;100602.06;4964450;28;20220;-59
2021/12/18 09:40:47;;;;;;;18.80;10.03;;;;;;;0.13;100.00;100600.13;4962369;28;20220;-58
2021/12/18 09:43:16;;;;;;;17.03;8.70;;;;;;;0.21;100.00;100597.38;4962954;28;20558;-56
2021/12/18 09:45:45;;;;;;;15.00;9.33;;;;;;;0.32;100.00;100598.88;4964235;28;20216;-59
2021/12/18 09:48:12;;;;;;;16.47;9.47;;;;;;;0.34;100.00;100586.81;4963285;28;20193;-58
2021/12/18 09:50:42;;;;;;;11.47;6.90;;;;;;;0.40;100.00;100574.66;4962613;28;20199;-59
2021/12/18 09:53:09;;;;;;;12.43;7.27;;;;;;;0.49;100.00;100575.31;4964464;28;20190;-57
2021/12/18 09:55:37;;;;;;;10.77;6.77;;;;;;;0.52;100.00;100570.09;4963719;28;20210;-58
2021/12/18 09:58:04;;;;;;;10.77;5.30;;;;;;;0.56;100.00;100575.13;4962327;28;20582;-57
2021/12/18 10:00:31;;;;;;;10.17;6.03;;;;;;;0.63;100.00;100573.25;4963186;28;20279;-58
2021/12/18 10:02:58;;;;;;;12.57;7.60;;;;;;;0.72;100.00;100561.88;4964009;28;20547;-58
2021/12/18 10:05:28;;;;;;;18.57;9.80;;;;;;;0.79;100.00;100555.69;4962289;28;20217;-58
2021/12/18 10:08:09;;;;;;;27.93;13.60;;;;;;;0.88;100.00;100554.63;4963537;28;20244;-57
2021/12/18 10:10:39;;;;;;;17.23;8.90;;;;;;;0.94;100.00;100554.44;4962842;28;20273;-58
2021/12/18 10:13:08;;;;;;;32.27;17.00;;;;;;;0.98;100.00;100556.06;4962292;28;20186;-59
2021/12/18 10:15:36;;;;;;;26.03;15.07;;;;;;;1.09;100.00;100539.47;4961780;28;20308;-57
2021/12/18 10:18:08;;;;;;;26.97;16.10;;;;;;;1.20;100.00;100537.44;4964113;28;20206;-58
2021/12/18 10:20:36;;;;;;;29.93;17.93;;;;;;;1.26;100.00;100537.25;4962501;28;20190;-55
2021/12/18 10:23:05;;;;;;;26.33;15.73;;;;;;;1.38;100.00;100535.22;4962143;28;20294;-59
2021/12/18 10:25:33;;;;;;;30.50;17.97;;;;;;;1.44;100.00;100529.91;4963548;28;20214;-58
2021/12/18 10:28:08;;;;;;;27.63;17.17;;;;;;;1.52;100.00;100530.50;4963757;28;20807;-59
2021/12/18 10:30:36;;;;;;;27.13;16.07;;;;;;;1.55;100.00;100527.03;4962186;28;20194;-59
2021/12/18 10:33:05;;;;;;;28.27;16.97;;;;;;;1.60;100.00;100535.41;4962593;28;20538;-58
2021/12/18 10:35:43;;;;;;;24.40;15.03;;;;;;;1.67;100.00;100526.63;4963379;28;20221;-58
2021/12/18 10:38:31;;;;;;;25.97;15.03;;;;;;;1.77;100.00;100529.78;4963608;28;20189;-58
2021/12/18 10:40:59;;;;;;;23.43;14.17;;;;;;;1.81;100.00;100526.22;4961844;28;20615;-58
2021/12/18 10:43:26;;;;;;;22.73;13.37;;;;;;;1.84;100.00;100528.69;4963305;28;20190;-58
2021/12/18 10:45:53;;;;;;;26.07;15.30;;;;;;;1.84;100.00;100526.13;4968038;28;20373;-59
2021/12/18 10:48:19;;;;;;;27.80;16.37;;;;;;;1.85;100.00;100526.94;4965627;28;20191;-58
2021/12/18 10:50:49;;;;;;;28.40;16.63;;;;;;;1.92;100.00;100521.56;4962285;28;20194;-59
2021/12/18 10:53:18;;;;;;;29.10;17.33;;;;;;;2.00;100.00;100523.06;4962664;28;20187;-59
2021/12/18 10:55:48;;;;;;;24.53;15.33;;;;;;;2.04;100.00;100524.66;4961469;28;20285;-58
2021/12/18 10:58:20;;;;;;;38.60;22.20;;;;;;;2.09;100.00;100521.91;4962018;28;20217;-59
2021/12/18 11:00:52;;;;;;;32.50;17.53;;;;;;;2.12;100.00;100514.91;4962726;28;20190;-58
2021/12/18 11:03:29;;;;;;;33.33;17.20;;;;;;;2.19;100.00;100518.16;4962936;28;20214;-58
2021/12/18 11:06:16;;;;;;;35.23;18.30;;;;;;;2.21;100.00;100514.59;4962668;28;20305;-59
2021/12/18 11:09:00;;;;;;;33.37;17.30;;;;;;;2.26;100.00;100509.31;4963428;28;20195;-59
2021/12/18 11:14:17;;;;;;;34.37;18.13;;;;;;;2.36;100.00;100507.25;4962651;28;20229;-59
2021/12/18 11:16:48;;;;;;;37.10;18.70;;;;;;;2.41;100.00;100501.97;4963139;28;20293;-58
2021/12/18 11:19:18;;;;;;;34.90;17.53;;;;;;;2.42;99.98;100504.47;4962032;28;20206;-59
2021/12/18 11:21:47;;;;;;;37.93;18.53;;;;;;;2.50;100.00;100505.06;4960463;28;20274;-58
2021/12/18 11:24:14;;;;;;;34.10;17.50;;;;;;;2.58;100.00;100503.97;4962473;28;20193;-59
2021/12/18 11:26:45;;;;;;;37.20;17.73;;;;;;;2.62;99.84;100501.25;4962794;28;20290;-58
2021/12/18 11:29:19;;;;;;;35.80;18.47;;;;;;;2.67;99.90;100498.47;4961529;28;20683;-59
2021/12/18 11:31:47;;;;;;;37.00;17.40;;;;;;;2.71;100.00;100492.31;4960376;28;20191;-59
2021/12/18 11:34:14;;;;;;;34.60;16.80;;;;;;;2.74;100.00;100484.47;4962317;28;20233;-59
2021/12/18 11:36:43;;;;;;;30.53;15.80;;;;;;;2.76;99.34;100490.44;4962597;28;20215;-59
2021/12/18 11:39:12;;;;;;;32.30;17.00;;;;;;;2.82;99.15;100489.34;4961107;28;20218;-59
2021/12/18 11:41:39;;;;;;;30.00;15.47;;;;;;;2.86;99.00;100488.34;4961112;28;20194;-59
2021/12/18 11:44:27;;;;;;;30.33;15.63;;;;;;;2.93;98.99;100486.41;4962888;28;20587;-59
2021/12/18 11:46:54;;;;;;;24.97;14.13;;;;;;;2.95;97.49;100485.44;4961582;28;20225;-59
2021/12/18 11:49:25;;;;;;;29.23;15.73;;;;;;;3.01;97.79;100479.22;4961321;28;20667;-59
2021/12/18 11:51:59;;;;;;;29.07;14.63;;;;;;;3.07;97.98;100479.00;4962005;28;20209;-59